Time;durP1;ratioP1;P1;durP2;ratioP2;P2;SDS_P1;SDS_P2;PMS_P1;PMS_P2;Temp;Humidity;BMP_temperature;BMP_pressure;BME280_temperature;BME280_humidity;BME280_pressure;Samples;Min_cycle;Max_cycle;Signal;HPM_P1;HPM_P2
2022/10/04 00:00:31;;;;;;;10.53;7.03;;;13.30;99.90;;;;;;5048265;28;20257;-32
2022/10/04 00:03:17;;;;;;;10.23;6.77;;;13.30;99.90;;;;;;5046490;28;20297;-32
2022/10/04 00:05:52;;;;;;;11.10;6.97;;;13.30;99.90;;;;;;5063954;28;20212;-32
2022/10/04 00:08:41;;;;;;;13.43;7.30;;;13.30;99.90;;;;;;5055077;28;20631;-32
2022/10/04 00:11:22;;;;;;;9.73;7.80;;;13.30;99.90;;;;;;5046246;28;20597;-32
2022/10/04 00:13:55;;;;;;;12.37;7.63;;;13.30;99.90;;;;;;5056727;28;20211;-32
2022/10/04 00:16:33;;;;;;;9.70;7.93;;;13.30;99.90;;;;;;5048827;28;20199;-32
2022/10/04 00:19:18;;;;;;;11.00;7.80;;;13.30;99.90;;;;;;5059119;28;20326;-32
2022/10/04 00:21:55;;;;;;;9.93;6.93;;;13.30;99.90;;;;;;5064718;28;20200;-33
2022/10/04 00:24:27;;;;;;;10.83;7.30;;;13.20;99.90;;;;;;5051368;28;20228;-32
2022/10/04 00:27:21;;;;;;;10.13;7.37;;;13.20;99.90;;;;;;5058624;28;20284;-32
2022/10/04 00:30:03;;;;;;;9.30;7.27;;;13.20;99.90;;;;;;5056103;28;20203;-32
2022/10/04 00:32:50;;;;;;;14.20;7.77;;;13.20;99.90;;;;;;5064621;28;20231;-32
2022/10/04 00:35:38;;;;;;;9.43;6.70;;;13.10;99.90;;;;;;5058369;28;20299;-33
2022/10/04 00:38:14;;;;;;;10.83;7.17;;;13.10;99.90;;;;;;5048799;28;20207;-32
2022/10/04 00:41:02;;;;;;;11.53;6.97;;;13.10;99.90;;;;;;5046251;28;20218;-33
2022/10/04 00:43:42;;;;;;;9.40;6.33;;;13.10;99.90;;;;;;5047098;28;20208;-33
2022/10/04 00:46:24;;;;;;;10.07;7.57;;;13.00;99.90;;;;;;5060887;28;20215;-32
2022/10/04 00:48:59;;;;;;;9.43;6.87;;;13.00;99.90;;;;;;5057347;28;20195;-32
2022/10/04 00:51:47;;;;;;;9.40;7.37;;;13.00;99.90;;;;;;5046831;28;20204;-32
2022/10/04 00:54:37;;;;;;;10.27;7.33;;;12.90;99.90;;;;;;5057230;28;20207;-32
2022/10/04 00:57:11;;;;;;;10.37;7.50;;;12.90;99.90;;;;;;5051813;28;20204;-32
2022/10/04 00:59:45;;;;;;;9.70;7.17;;;12.80;99.90;;;;;;5048264;28;20246;-33
2022/10/04 01:02:12;;;;;;;9.37;7.10;;;12.80;99.90;;;;;;5050580;28;20315;-34
2022/10/04 01:04:50;;;;;;;9.30;7.33;;;12.80;99.90;;;;;;5054366;28;20283;-32
2022/10/04 01:07:26;;;;;;;11.60;7.47;;;12.80;99.90;;;;;;5048949;28;20594;-32
2022/10/04 01:09:59;;;;;;;8.30;7.07;;;12.80;99.90;;;;;;5051307;28;20604;-32
2022/10/04 01:12:46;;;;;;;11.37;8.00;;;12.70;99.90;;;;;;5056890;28;20405;-32
2022/10/04 01:15:19;;;;;;;10.47;8.00;;;12.70;99.90;;;;;;5063891;28;20660;-32
2022/10/04 01:18:11;;;;;;;9.50;7.37;;;12.70;99.90;;;;;;5057563;28;20741;-32
2022/10/04 01:20:48;;;;;;;11.47;7.67;;;12.60;99.90;;;;;;5061532;28;20197;-32
2022/10/04 01:23:30;;;;;;;9.47;7.37;;;12.60;99.90;;;;;;5060006;28;20207;-32
2022/10/04 01:25:58;;;;;;;10.23;7.37;;;12.60;99.90;;;;;;5050020;28;20697;-32
2022/10/04 01:28:28;;;;;;;8.97;7.33;;;12.50;99.90;;;;;;5047729;28;20261;-32
2022/10/04 01:30:55;;;;;;;11.13;7.60;;;12.50;99.90;;;;;;5051963;28;20204;-32
2022/10/04 01:33:24;;;;;;;10.70;7.20;;;12.50;99.90;;;;;;5059188;28;20259;-33
2022/10/04 01:35:53;;;;;;;9.70;7.03;;;12.50;99.90;;;;;;5049219;28;20200;-32
2022/10/04 01:38:23;;;;;;;11.83;7.60;;;12.50;99.90;;;;;;5048770;28;20203;-32
2022/10/04 01:40:56;;;;;;;9.80;7.10;;;12.50;99.90;;;;;;5048268;28;20675;-32
2022/10/04 01:43:32;;;;;;;8.77;7.50;;;12.40;99.90;;;;;;5048454;28;20248;-32
2022/10/04 01:46:24;;;;;;;16.10;7.33;;;12.40;99.90;;;;;;5052971;28;20242;-32
2022/10/04 01:48:55;;;;;;;12.17;6.83;;;12.40;99.90;;;;;;5056199;28;20215;-32
2022/10/04 01:51:32;;;;;;;11.40;7.00;;;12.40;99.90;;;;;;5048176;28;20224;-32
2022/10/04 01:54:11;;;;;;;11.07;7.57;;;12.40;99.90;;;;;;5048226;28;20216;-33
2022/10/04 01:56:47;;;;;;;11.13;7.27;;;12.30;99.90;;;;;;5063280;28;20202;-32
2022/10/04 01:59:25;;;;;;;9.40;7.10;;;12.30;99.90;;;;;;5048716;28;20251;-32
2022/10/04 02:02:47;;;;;;;7.63;6.23;;;12.30;99.90;;;;;;5051810;28;20199;-32
2022/10/04 02:05:18;;;;;;;9.50;6.57;;;12.20;99.90;;;;;;5054489;28;20616;-32
2022/10/04 02:07:52;;;;;;;9.47;6.97;;;12.20;99.90;;;;;;5064445;28;20211;-32
2022/10/04 02:10:20;;;;;;;9.60;6.53;;;12.10;99.90;;;;;;5056629;28;20200;-32
2022/10/04 02:12:51;;;;;;;10.23;6.37;;;12.10;99.90;;;;;;5056471;28;20232;-32
2022/10/04 02:15:24;;;;;;;8.10;6.27;;;12.10;99.90;;;;;;5049059;28;20722;-32
2022/10/04 02:17:55;;;;;;;10.30;7.00;;;12.10;99.90;;;;;;5065057;28;20236;-32
2022/10/04 02:20:27;;;;;;;7.60;5.93;;;12.10;99.90;;;;;;5048468;28;20227;-32
2022/10/04 02:22:58;;;;;;;9.57;7.03;;;12.10;99.90;;;;;;5057826;28;20254;-32
2022/10/04 02:25:28;;;;;;;9.27;6.57;;;12.10;99.90;;;;;;5046105;28;20223;-32
2022/10/04 02:27:55;;;;;;;8.43;7.10;;;12.10;99.90;;;;;;5048175;28;20203;-32
2022/10/04 02:30:24;;;;;;;10.70;6.90;;;12.10;99.90;;;;;;5047740;28;20756;-32
2022/10/04 02:32:56;;;;;;;10.17;6.97;;;12.10;99.90;;;;;;5054360;28;20220;-32
2022/10/04 02:35:35;;;;;;;8.83;6.70;;;12.00;99.90;;;;;;5047193;28;20514;-32
2022/10/04 02:38:12;;;;;;;8.80;6.33;;;12.00;99.90;;;;;;5047361;28;20309;-32
2022/10/04 02:41:05;;;;;;;8.63;6.17;;;12.00;99.90;;;;;;5047322;28;20200;-32
2022/10/04 02:43:38;;;;;;;9.13;6.90;;;12.00;99.90;;;;;;5048819;28;20207;-32
2022/10/04 02:46:33;;;;;;;9.90;6.73;;;12.00;99.90;;;;;;5048065;28;20200;-32
2022/10/04 02:49:09;;;;;;;8.93;6.70;;;12.00;99.90;;;;;;5062470;28;20257;-33
2022/10/04 02:51:36;;;;;;;10.57;6.80;;;11.90;99.90;;;;;;5047223;28;20588;-32
2022/10/04 02:54:13;;;;;;;9.03;6.90;;;11.90;99.90;;;;;;5058909;28;20533;-32
2022/10/04 02:56:41;;;;;;;10.27;6.77;;;11.90;99.90;;;;;;5047391;28;20191;-32
2022/10/04 02:59:15;;;;;;;8.33;6.63;;;11.90;99.90;;;;;;5047944;28;20208;-32
2022/10/04 03:01:49;;;;;;;9.20;7.10;;;11.90;99.90;;;;;;5062168;28;20563;-32
2022/10/04 03:04:19;;;;;;;9.37;7.20;;;11.80;99.90;;;;;;5065615;28;20215;-32
2022/10/04 03:06:47;;;;;;;13.47;7.27;;;11.80;99.90;;;;;;5048837;28;20215;-32
2022/10/04 03:09:18;;;;;;;9.83;6.87;;;11.80;99.90;;;;;;5058925;28;20300;-32
2022/10/04 03:11:47;;;;;;;10.27;6.83;;;11.80;99.90;;;;;;5046689;28;20679;-32
2022/10/04 03:14:23;;;;;;;9.13;6.47;;;11.80;99.90;;;;;;5050919;28;20246;-32
2022/10/04 03:16:59;;;;;;;7.90;6.80;;;11.70;99.90;;;;;;5061674;28;20207;-32
2022/10/04 03:19:30;;;;;;;9.53;6.63;;;11.70;99.90;;;;;;5061710;28;20338;-32
2022/10/04 03:22:05;;;;;;;9.37;6.53;;;11.70;99.90;;;;;;5054010;28;20207;-32
2022/10/04 03:24:52;;;;;;;10.07;6.93;;;11.70;99.90;;;;;;5062216;28;20317;-33
2022/10/04 03:27:25;;;;;;;9.50;7.00;;;11.70;99.90;;;;;;5058178;28;20239;-32
2022/10/04 03:29:54;;;;;;;9.70;6.97;;;11.60;99.90;;;;;;5050670;28;20203;-32
2022/10/04 03:32:29;;;;;;;11.13;6.90;;;11.60;99.90;;;;;;5049289;28;20228;-32
2022/10/04 03:34:59;;;;;;;10.20;6.77;;;11.60;99.90;;;;;;5059600;28;20204;-32
2022/10/04 03:37:29;;;;;;;12.27;6.53;;;11.60;99.90;;;;;;5050074;28;20200;-32
2022/10/04 03:40:00;;;;;;;10.60;7.13;;;11.50;99.90;;;;;;5046518;28;20219;-32
2022/10/04 03:42:36;;;;;;;8.80;6.50;;;11.50;99.90;;;;;;5045726;28;20215;-32
2022/10/04 03:45:10;;;;;;;9.40;6.90;;;11.50;99.90;;;;;;5064369;28;20930;-32
2022/10/04 03:47:43;;;;;;;10.87;7.07;;;11.50;99.90;;;;;;5064140;28;20291;-32
2022/10/04 03:50:17;;;;;;;9.23;6.83;;;11.40;99.90;;;;;;5050523;28;20650;-32
2022/10/04 03:52:53;;;;;;;9.90;6.90;;;11.40;99.90;;;;;;5047285;28;20245;-32
2022/10/04 03:55:33;;;;;;;9.37;6.50;;;11.40;99.90;;;;;;5064546;28;20195;-32
2022/10/04 03:58:00;;;;;;;10.60;6.70;;;11.40;99.90;;;;;;5061475;28;20195;-32
2022/10/04 04:00:28;;;;;;;10.23;6.63;;;11.30;99.90;;;;;;5052158;28;20262;-32
2022/10/04 04:02:59;;;;;;;10.13;6.30;;;11.30;99.90;;;;;;5062755;28;20222;-32
2022/10/04 04:05:56;;;;;;;8.07;6.23;;;11.30;99.90;;;;;;5055842;28;20211;-32
2022/10/04 04:08:35;;;;;;;6.97;6.10;;;11.30;99.90;;;;;;5050619;28;20220;-32
2022/10/04 04:11:04;;;;;;;10.03;6.23;;;11.30;99.90;;;;;;5062963;28;20207;-32
2022/10/04 04:13:49;;;;;;;10.53;6.93;;;11.30;99.90;;;;;;5060954;28;20247;-32
2022/10/04 04:16:19;;;;;;;8.40;6.27;;;11.20;99.90;;;;;;5046576;28;20663;-32
2022/10/04 04:18:48;;;;;;;10.03;6.43;;;11.20;99.90;;;;;;5052732;28;20235;-32
2022/10/04 04:21:18;;;;;;;8.33;6.13;;;11.20;99.90;;;;;;5058655;28;20201;-32
2022/10/04 04:24:00;;;;;;;7.37;6.20;;;11.10;99.90;;;;;;5046450;28;20200;-32
2022/10/04 04:26:38;;;;;;;9.57;6.43;;;11.10;99.90;;;;;;5046067;28;20266;-32
2022/10/04 04:29:23;;;;;;;8.43;6.63;;;11.10;99.90;;;;;;5051468;28;20203;-32
2022/10/04 04:32:03;;;;;;;8.97;6.67;;;11.10;99.90;;;;;;5047453;28;20200;-32
2022/10/04 04:35:07;;;;;;;8.43;6.20;;;11.10;99.90;;;;;;5064312;28;20557;-32
2022/10/04 04:37:35;;;;;;;8.10;6.03;;;11.10;99.90;;;;;;5064730;28;20235;-33
2022/10/04 04:40:23;;;;;;;9.43;6.43;;;11.10;99.90;;;;;;5050609;28;20189;-32
2022/10/04 04:42:51;;;;;;;9.67;6.47;;;11.10;99.90;;;;;;5065909;28;20204;-32
2022/10/04 04:45:24;;;;;;;9.33;6.00;;;11.10;99.90;;;;;;5062967;28;20211;-32
2022/10/04 04:47:56;;;;;;;9.37;5.73;;;11.10;99.90;;;;;;5069061;28;20224;-32
2022/10/04 04:50:36;;;;;;;9.37;5.83;;;11.00;99.90;;;;;;5069251;28;20192;-32
2022/10/04 04:53:05;;;;;;;9.47;6.70;;;11.00;99.90;;;;;;5068273;28;20231;-32
2022/10/04 04:55:37;;;;;;;8.23;5.77;;;11.00;99.90;;;;;;5049483;28;20219;-32
2022/10/04 04:58:37;;;;;;;7.17;6.20;;;11.00;99.90;;;;;;5049705;28;20235;-33
2022/10/04 05:01:14;;;;;;;11.60;6.30;;;11.00;99.90;;;;;;5052807;28;20451;-32
2022/10/04 05:03:41;;;;;;;9.37;5.77;;;11.00;99.90;;;;;;5060719;28;20215;-32
2022/10/04 05:06:25;;;;;;;9.40;5.60;;;11.00;99.90;;;;;;5059817;28;20196;-32
2022/10/04 05:08:52;;;;;;;9.67;5.67;;;11.00;99.90;;;;;;5056047;28;20208;-33
2022/10/04 05:11:29;;;;;;;7.67;5.53;;;11.00;99.90;;;;;;5061098;28;20688;-32
2022/10/04 05:14:04;;;;;;;10.53;5.87;;;10.90;99.90;;;;;;5063245;28;20252;-32
2022/10/04 05:16:40;;;;;;;8.80;6.30;;;10.90;99.90;;;;;;5064961;28;20191;-32
2022/10/04 05:19:20;;;;;;;7.83;5.97;;;10.90;99.90;;;;;;5065133;28;20235;-32
2022/10/04 05:21:55;;;;;;;9.17;6.50;;;10.90;99.90;;;;;;5059780;28;20218;-32
2022/10/04 05:24:36;;;;;;;7.50;5.83;;;10.90;99.90;;;;;;5065993;28;20622;-32
2022/10/04 05:27:13;;;;;;;11.93;6.13;;;10.80;99.90;;;;;;5066934;28;20207;-32
2022/10/04 05:30:07;;;;;;;9.23;5.47;;;10.80;99.90;;;;;;5055561;28;20246;-32
2022/10/04 05:32:53;;;;;;;10.47;5.63;;;10.80;99.90;;;;;;5063940;28;20636;-33
2022/10/04 05:35:26;;;;;;;8.80;5.90;;;10.70;99.90;;;;;;5059677;28;20204;-32
2022/10/04 05:38:09;;;;;;;8.87;6.27;;;10.70;99.90;;;;;;5056766;28;20572;-32
2022/10/04 05:40:55;;;;;;;7.07;5.60;;;10.70;99.90;;;;;;5057652;28;20665;-32
2022/10/04 05:43:31;;;;;;;9.53;5.80;;;10.60;99.90;;;;;;5050259;28;20196;-33
2022/10/04 05:46:44;;;;;;;8.37;5.83;;;10.60;99.90;;;;;;5066539;28;20394;-32
2022/10/04 05:49:13;;;;;;;9.80;5.53;;;10.60;99.90;;;;;;5065098;28;20638;-33
2022/10/04 05:51:54;;;;;;;11.93;5.63;;;10.50;99.90;;;;;;5063293;28;20200;-32
2022/10/04 05:54:28;;;;;;;8.30;6.13;;;10.50;99.90;;;;;;5063037;28;20234;-33
2022/10/04 05:57:09;;;;;;;7.67;5.50;;;10.50;99.90;;;;;;5052448;28;20219;-32
2022/10/04 05:59:51;;;;;;;8.27;5.60;;;10.50;99.90;;;;;;5063429;28;20210;-33
2022/10/04 06:02:56;;;;;;;7.77;5.23;;;10.50;99.90;;;;;;5063649;28;20192;-32
2022/10/04 06:05:56;;;;;;;10.07;5.60;;;10.50;99.90;;;;;;5048964;28;20212;-33
2022/10/04 06:08:35;;;;;;;10.63;5.63;;;10.50;99.90;;;;;;5047309;28;20295;-32
2022/10/04 06:11:30;;;;;;;8.07;5.23;;;10.50;99.90;;;;;;5057688;28;20214;-33
2022/10/04 06:14:22;;;;;;;8.30;5.20;;;10.50;99.90;;;;;;5053867;28;20224;-33
2022/10/04 06:17:08;;;;;;;7.80;5.50;;;10.50;99.90;;;;;;5055990;28;20911;-32
2022/10/04 06:19:50;;;;;;;8.53;5.27;;;10.50;99.90;;;;;;5063344;28;20199;-33
2022/10/04 06:22:21;;;;;;;8.50;5.53;;;10.50;99.90;;;;;;5050459;28;20499;-33
2022/10/04 06:25:04;;;;;;;10.63;5.50;;;10.50;99.90;;;;;;5063485;28;20264;-33
2022/10/04 06:28:10;;;;;;;12.13;5.60;;;10.50;99.90;;;;;;5066603;28;20290;-33
2022/10/04 06:31:16;;;;;;;10.67;5.33;;;10.50;99.90;;;;;;5060387;28;20208;-33
2022/10/04 06:34:05;;;;;;;7.93;5.50;;;10.50;99.90;;;;;;5055194;28;20247;-33
2022/10/04 06:36:58;;;;;;;7.47;5.10;;;10.50;99.90;;;;;;5065709;28;20257;-33
2022/10/04 06:39:40;;;;;;;13.67;5.20;;;10.60;99.90;;;;;;5063167;28;20223;-33
2022/10/04 06:42:32;;;;;;;9.73;4.83;;;10.60;99.90;;;;;;5067034;28;20197;-33
2022/10/04 06:45:04;;;;;;;10.13;5.40;;;10.60;99.90;;;;;;5063713;28;20249;-33
2022/10/04 06:47:32;;;;;;;11.03;5.77;;;10.60;99.90;;;;;;5064372;28;20211;-33
2022/10/04 06:50:06;;;;;;;14.50;5.90;;;10.70;99.90;;;;;;5067552;28;20314;-33
2022/10/04 06:53:05;;;;;;;8.00;5.53;;;10.70;99.90;;;;;;5067516;28;20207;-33
2022/10/04 06:55:41;;;;;;;7.50;4.80;;;10.70;99.90;;;;;;5050350;28;20212;-33
2022/10/04 06:58:39;;;;;;;8.90;5.90;;;10.80;99.90;;;;;;5065577;28;20750;-33
2022/10/04 07:01:28;;;;;;;12.43;5.33;;;10.80;99.90;;;;;;5047016;28;20220;-33
2022/10/04 07:04:10;;;;;;;10.97;5.87;;;10.80;99.90;;;;;;5050836;28;20819;-33
2022/10/04 07:07:22;;;;;;;8.57;5.63;;;10.80;99.90;;;;;;5067549;28;20294;-33
2022/10/04 07:10:06;;;;;;;9.53;5.87;;;10.80;99.90;;;;;;5066702;28;20226;-33
2022/10/04 07:12:39;;;;;;;11.30;6.50;;;10.90;99.90;;;;;;5055186;28;20293;-33
2022/10/04 07:15:21;;;;;;;9.23;5.63;;;10.90;99.90;;;;;;5058515;28;20225;-32
2022/10/04 07:17:52;;;;;;;7.43;5.27;;;10.90;99.90;;;;;;5063033;28;20259;-33
2022/10/04 07:20:25;;;;;;;10.50;5.80;;;11.00;99.90;;;;;;5067041;28;20227;-33
2022/10/04 07:23:05;;;;;;;8.43;5.53;;;11.00;99.90;;;;;;5053661;28;20254;-33
2022/10/04 07:25:42;;;;;;;8.17;5.03;;;11.00;99.90;;;;;;5047538;28;20507;-31
2022/10/04 07:31:44;;;;;;;7.33;4.93;;;11.10;99.90;;;;;;5066454;28;20211;-32
2022/10/04 07:34:30;;;;;;;7.77;5.37;;;11.20;99.90;;;;;;5066598;28;20685;-32
2022/10/04 07:37:02;;;;;;;9.30;5.63;;;11.20;99.90;;;;;;5067274;28;20238;-32
2022/10/04 07:39:44;;;;;;;7.23;5.00;;;11.30;99.90;;;;;;5065905;28;20196;-33
2022/10/04 07:42:43;;;;;;;8.40;4.90;;;11.30;99.90;;;;;;5064429;28;20299;-33
2022/10/04 07:45:31;;;;;;;9.00;5.20;;;11.40;99.90;;;;;;5065927;28;20208;-32
2022/10/04 07:48:22;;;;;;;8.60;5.43;;;11.40;99.90;;;;;;5055695;28;20303;-32
2022/10/04 07:51:35;;;;;;;7.90;5.37;;;11.50;99.90;;;;;;5065835;28;20530;-32
2022/10/04 07:54:20;;;;;;;8.33;4.90;;;11.50;99.90;;;;;;5070185;28;20242;-32
2022/10/04 07:57:10;;;;;;;8.07;5.37;;;11.60;99.90;;;;;;5065229;28;20231;-33
2022/10/04 07:59:53;;;;;;;8.83;5.20;;;11.60;99.90;;;;;;5062991;28;20191;-33
2022/10/04 08:02:45;;;;;;;8.83;5.40;;;11.70;99.90;;;;;;5063206;28;20878;-33
2022/10/04 08:05:31;;;;;;;9.77;5.47;;;11.70;99.90;;;;;;5064047;28;20235;-32
2022/10/04 08:07:59;;;;;;;6.50;5.27;;;11.90;99.90;;;;;;5065283;28;20248;-32
2022/10/04 08:10:26;;;;;;;7.03;4.80;;;11.90;99.90;;;;;;5063861;28;20199;-33
2022/10/04 08:13:00;;;;;;;6.90;4.77;;;12.00;99.90;;;;;;5062858;28;20699;-33
2022/10/04 08:15:41;;;;;;;7.03;5.07;;;12.00;99.90;;;;;;5063611;28;20227;-33
2022/10/04 08:18:18;;;;;;;7.90;4.60;;;12.10;99.90;;;;;;5067640;28;20267;-33
2022/10/04 08:21:08;;;;;;;12.63;4.90;;;12.20;99.90;;;;;;5066433;28;20233;-33
2022/10/04 08:23:54;;;;;;;8.17;4.93;;;12.20;99.90;;;;;;5068001;28;20192;-33
2022/10/04 08:26:48;;;;;;;10.13;4.90;;;12.40;99.90;;;;;;5067586;28;20215;-33
2022/10/04 08:29:43;;;;;;;8.27;5.07;;;12.50;99.90;;;;;;5069260;28;20705;-33
2022/10/04 08:32:40;;;;;;;10.27;5.20;;;12.60;99.90;;;;;;5066572;28;20207;-32
2022/10/04 08:35:29;;;;;;;7.57;4.27;;;12.60;99.90;;;;;;5068169;28;20231;-32
2022/10/04 08:38:08;;;;;;;10.00;5.20;;;12.70;99.90;;;;;;5068554;28;20195;-33
2022/10/04 08:41:00;;;;;;;9.63;4.80;;;12.80;99.90;;;;;;5063753;28;20977;-32
2022/10/04 08:43:41;;;;;;;8.90;4.60;;;12.90;99.90;;;;;;5067074;28;20282;-33
2022/10/04 08:46:08;;;;;;;10.47;4.60;;;12.90;99.90;;;;;;5065160;28;20338;-33
2022/10/04 08:48:37;;;;;;;9.50;4.67;;;13.00;99.90;;;;;;5070394;28;20227;-32
2022/10/04 08:51:05;;;;;;;10.63;5.03;;;13.10;99.90;;;;;;5065494;28;20688;-33
2022/10/04 08:53:44;;;;;;;11.30;5.00;;;13.20;99.90;;;;;;5067158;28;20210;-32
2022/10/04 08:56:48;;;;;;;10.40;5.70;;;13.30;99.90;;;;;;5055236;28;20203;-32
2022/10/04 08:59:45;;;;;;;9.07;5.47;;;13.50;99.90;;;;;;5069233;28;20203;-32
2022/10/04 09:02:39;;;;;;;6.77;4.77;;;13.50;99.90;;;;;;5067425;28;20199;-33
2022/10/04 09:05:24;;;;;;;11.77;5.20;;;13.60;99.90;;;;;;5068512;28;20310;-33
2022/10/04 09:08:28;;;;;;;10.47;4.97;;;13.70;99.90;;;;;;5067821;28;20674;-32
2022/10/04 09:11:03;;;;;;;9.47;5.20;;;13.80;99.90;;;;;;5067176;28;20654;-32
2022/10/04 09:14:05;;;;;;;11.77;5.40;;;13.90;99.90;;;;;;5047760;28;20294;-32
2022/10/04 09:17:07;;;;;;;10.73;5.50;;;13.90;99.90;;;;;;5048916;28;20294;-32
2022/10/04 09:19:46;;;;;;;9.77;5.70;;;14.00;99.90;;;;;;5047725;28;20481;-32
2022/10/04 09:22:23;;;;;;;8.33;5.23;;;14.10;99.90;;;;;;5068978;28;20252;-32
2022/10/04 09:25:16;;;;;;;12.67;5.37;;;14.20;99.90;;;;;;5069837;28;20249;-33
2022/10/04 09:28:19;;;;;;;9.73;5.67;;;14.30;99.90;;;;;;5067902;28;20608;-33
2022/10/04 09:30:55;;;;;;;11.87;5.30;;;14.40;99.90;;;;;;5057061;28;20315;-32
2022/10/04 09:33:41;;;;;;;9.17;5.03;;;14.50;99.90;;;;;;5055157;28;20587;-32
2022/10/04 09:36:33;;;;;;;8.37;5.50;;;14.50;99.90;;;;;;5062979;28;20321;-32
2022/10/04 09:39:38;;;;;;;11.30;5.30;;;14.60;99.90;;;;;;5068298;28;20608;-32
2022/10/04 09:42:27;;;;;;;8.37;5.03;;;14.70;99.90;;;;;;5061810;28;20235;-35
2022/10/04 09:45:13;;;;;;;9.90;5.03;;;14.70;99.90;;;;;;5064500;28;20585;-35
2022/10/04 09:47:52;;;;;;;8.20;5.53;;;14.80;99.90;;;;;;5068192;28;20225;-35
2022/10/04 09:50:48;;;;;;;10.13;5.30;;;14.90;99.90;;;;;;5065695;28;20206;-35
2022/10/04 09:53:16;;;;;;;7.07;5.43;;;15.00;99.90;;;;;;5060180;28;20204;-35
2022/10/04 09:56:08;;;;;;;7.77;5.00;;;15.00;99.90;;;;;;5061892;28;20219;-35
2022/10/04 09:59:22;;;;;;;9.70;5.57;;;15.10;99.90;;;;;;5048184;28;20258;-35
2022/10/04 10:02:13;;;;;;;9.57;5.00;;;15.20;99.90;;;;;;5057007;28;20336;-35
2022/10/04 10:05:05;;;;;;;10.40;5.43;;;15.20;99.90;;;;;;5058328;28;20220;-35
2022/10/04 10:07:53;;;;;;;12.30;5.40;;;15.30;99.90;;;;;;5055199;28;20625;-35
2022/10/04 10:13:41;;;;;;;10.53;5.70;;;15.40;99.90;;;;;;5056451;28;20705;-35
2022/10/04 10:16:43;;;;;;;8.67;5.80;;;15.50;99.90;;;;;;5062309;28;20219;-35
2022/10/04 10:19:31;;;;;;;10.50;5.53;;;15.60;99.90;;;;;;5053143;28;20363;-34
2022/10/04 10:22:26;;;;;;;10.13;5.37;;;15.60;99.90;;;;;;5053935;28;20650;-35
2022/10/04 10:25:20;;;;;;;11.93;5.17;;;15.70;99.90;;;;;;5065607;28;20204;-34
2022/10/04 10:28:41;;;;;;;12.00;5.30;;;15.70;99.90;;;;;;5064175;28;20202;-35
2022/10/04 10:31:29;;;;;;;11.00;6.07;;;15.80;99.90;;;;;;5048665;28;20306;-35
2022/10/04 10:34:29;;;;;;;8.10;5.30;;;15.90;99.90;;;;;;5056799;28;20196;-35
2022/10/04 10:37:23;;;;;;;7.53;4.80;;;16.00;99.90;;;;;;5056472;28;20216;-35
2022/10/04 10:39:59;;;;;;;10.23;5.10;;;16.00;99.90;;;;;;5055182;28;20191;-33
2022/10/04 10:42:49;;;;;;;10.50;5.00;;;16.10;99.90;;;;;;5064594;28;20219;-34
2022/10/04 10:46:03;;;;;;;9.47;4.90;;;16.20;99.90;;;;;;5051157;28;20211;-34
2022/10/04 10:48:43;;;;;;;11.77;5.40;;;16.30;99.90;;;;;;5052546;28;20228;-34
2022/10/04 10:51:48;;;;;;;8.63;4.63;;;16.30;99.90;;;;;;5051639;28;20341;-33
2022/10/04 10:54:29;;;;;;;9.40;5.00;;;16.40;99.90;;;;;;5057834;28;20270;-34
2022/10/04 10:56:59;;;;;;;9.23;4.63;;;16.50;99.90;;;;;;5066984;28;20222;-35
2022/10/04 10:59:42;;;;;;;8.97;4.40;;;16.50;99.90;;;;;;5065255;28;20198;-32
2022/10/04 11:02:35;;;;;;;7.67;4.30;;;16.60;99.90;;;;;;5060018;28;20239;-33
2022/10/04 11:05:47;;;;;;;10.30;4.83;;;16.70;99.90;;;;;;5046778;28;20244;-35
2022/10/04 11:08:42;;;;;;;7.37;4.07;;;16.80;99.90;;;;;;5067885;28;20685;-36
2022/10/04 11:11:31;;;;;;;9.83;5.07;;;16.80;99.90;;;;;;5059408;28;20626;-35
2022/10/04 11:14:11;;;;;;;12.30;5.13;;;16.90;99.90;;;;;;5065664;28;20261;-36
2022/10/04 11:17:19;;;;;;;9.53;4.43;;;17.00;99.90;;;;;;5061905;28;20614;-35
2022/10/04 11:20:23;;;;;;;9.87;4.57;;;17.00;99.90;;;;;;5049177;28;20203;-36
2022/10/04 11:23:06;;;;;;;9.13;4.73;;;17.10;99.90;;;;;;5063760;28;20306;-33
2022/10/04 11:25:56;;;;;;;9.03;5.10;;;17.10;99.90;;;;;;5064240;28;20207;-33
2022/10/04 11:28:57;;;;;;;8.90;4.77;;;17.20;99.90;;;;;;5065435;28;20199;-34
2022/10/04 11:31:53;;;;;;;10.63;5.27;;;17.20;99.90;;;;;;5061343;28;20216;-35
2022/10/04 11:34:49;;;;;;;8.87;4.80;;;17.30;99.90;;;;;;5053846;28;20223;-35
2022/10/04 11:37:37;;;;;;;11.03;4.60;;;17.30;99.90;;;;;;5062138;28;20562;-33
2022/10/04 11:40:19;;;;;;;9.03;4.63;;;17.40;99.90;;;;;;5066681;28;20561;-33
2022/10/04 11:43:30;;;;;;;7.83;4.60;;;17.40;99.90;;;;;;5061745;28;20282;-34
2022/10/04 11:46:01;;;;;;;15.77;7.50;;;17.40;99.90;;;;;;5059375;28;20203;-34
2022/10/04 11:48:52;;;;;;;13.80;5.90;;;17.50;99.90;;;;;;5063800;28;20210;-34
2022/10/04 11:51:39;;;;;;;13.13;4.87;;;17.50;99.90;;;;;;5063672;28;20245;-33
2022/10/04 11:54:29;;;;;;;7.13;3.73;;;17.60;99.90;;;;;;5065514;28;20677;-33
2022/10/04 11:57:27;;;;;;;13.97;5.17;;;17.60;99.90;;;;;;5030125;28;20693;-33
2022/10/04 12:00:14;;;;;;;10.63;4.40;;;17.70;99.90;;;;;;5063256;28;20290;-34
2022/10/04 12:03:00;;;;;;;9.93;4.43;;;17.70;99.90;;;;;;5052231;28;20200;-34
2022/10/04 12:06:02;;;;;;;7.80;4.33;;;17.80;99.90;;;;;;5044813;28;20212;-33
2022/10/04 12:09:08;;;;;;;7.20;4.10;;;17.90;99.90;;;;;;5056136;28;20191;-34
2022/10/04 12:14:43;;;;;;;5.80;3.70;;;18.00;99.90;;;;;;5058581;28;20247;-33
2022/10/04 12:17:13;;;;;;;7.18;4.20;;;18.00;99.90;;;;;;5063579;28;20215;-33
2022/10/04 12:19:59;;;;;;;6.90;3.83;;;18.00;99.90;;;;;;5064066;28;20289;-34
2022/10/04 12:22:51;;;;;;;6.17;4.07;;;18.10;99.90;;;;;;5063667;28;20200;-34
2022/10/04 12:25:37;;;;;;;7.30;3.37;;;18.10;99.90;;;;;;5065719;28;20694;-35
2022/10/04 12:28:30;;;;;;;6.60;3.33;;;18.20;99.90;;;;;;5063318;28;20294;-34
2022/10/04 12:31:22;;;;;;;6.63;3.70;;;18.20;99.90;;;;;;5057656;28;20255;-34
2022/10/04 12:34:18;;;;;;;6.73;3.83;;;18.20;99.90;;;;;;5046160;28;20232;-34
2022/10/04 12:37:05;;;;;;;9.80;3.77;;;18.20;99.90;;;;;;5046848;28;20232;-35
2022/10/04 12:40:06;;;;;;;7.43;4.07;;;18.30;99.90;;;;;;5060356;28;20223;-34
2022/10/04 12:43:11;;;;;;;7.80;3.87;;;18.30;99.90;;;;;;5059202;28;20711;-34
2022/10/04 12:46:16;;;;;;;8.23;4.13;;;18.40;99.90;;;;;;5061826;28;20195;-35
2022/10/04 12:49:02;;;;;;;7.60;3.90;;;18.40;99.90;;;;;;5066249;28;20743;-34
2022/10/04 12:51:53;;;;;;;4.87;3.43;;;18.50;99.90;;;;;;5062292;28;20231;-35
2022/10/04 12:54:43;;;;;;;6.53;3.60;;;18.50;99.90;;;;;;5051923;28;20204;-34
2022/10/04 12:57:46;;;;;;;5.97;3.03;;;18.50;99.90;;;;;;5050602;28;20235;-36
2022/10/04 13:00:22;;;;;;;5.47;3.30;;;18.50;99.90;;;;;;5055186;28;20227;-35
2022/10/04 13:03:22;;;;;;;4.80;3.13;;;18.60;99.90;;;;;;5060526;28;20677;-35
2022/10/04 13:05:53;;;;;;;5.10;3.60;;;18.60;99.90;;;;;;5069408;28;20195;-36
2022/10/04 13:09:01;;;;;;;6.87;3.77;;;18.60;99.90;;;;;;5055954;28;20258;-34
2022/10/04 13:11:43;;;;;;;11.57;3.67;;;18.60;99.90;;;;;;5051864;28;20215;-35
2022/10/04 13:14:28;;;;;;;5.23;3.00;;;18.60;99.90;;;;;;5066609;28;20291;-35
2022/10/04 13:17:07;;;;;;;9.73;4.00;;;18.60;99.90;;;;;;5064068;28;20235;-35
2022/10/04 13:20:02;;;;;;;5.57;3.10;;;18.60;99.90;;;;;;5067341;28;20217;-35
2022/10/04 13:22:35;;;;;;;5.50;3.33;;;18.70;99.90;;;;;;5066661;28;20627;-35
2022/10/04 13:25:46;;;;;;;4.77;3.10;;;18.70;99.90;;;;;;5048854;28;20235;-34
2022/10/04 13:29:05;;;;;;;8.68;3.35;;;18.80;99.90;;;;;;5067587;28;20760;-35
2022/10/04 13:31:51;;;;;;;5.18;3.47;;;18.80;99.90;;;;;;5071076;28;20567;-34
2022/10/04 13:34:41;;;;;;;8.80;3.80;;;18.80;99.90;;;;;;5069472;28;20613;-36
2022/10/04 13:37:31;;;;;;;7.00;3.33;;;18.90;99.90;;;;;;5050499;28;20218;-35
2022/10/04 13:40:20;;;;;;;7.13;3.50;;;18.90;99.90;;;;;;5065253;28;20199;-35
2022/10/04 13:42:57;;;;;;;7.40;4.32;;;18.90;99.90;;;;;;5067439;28;20581;-34
2022/10/04 13:45:27;;;;;;;10.13;4.17;;;19.00;99.90;;;;;;5056495;28;20200;-35
2022/10/04 13:47:55;;;;;;;10.17;4.23;;;19.00;99.90;;;;;;5068632;28;20212;-35
2022/10/04 13:50:43;;;;;;;6.50;3.72;;;19.00;99.90;;;;;;5063890;28;20219;-34
2022/10/04 13:56:57;;;;;;;17.10;4.33;;;19.10;99.90;;;;;;5054344;28;20560;-35
2022/10/04 13:59:35;;;;;;;7.87;3.63;;;19.10;99.90;;;;;;5062858;28;20204;-36
2022/10/04 14:03:00;;;;;;;20.97;5.63;;;19.10;99.90;;;;;;5064178;28;20282;-36
2022/10/04 14:06:17;;;;;;;12.10;5.13;;;19.10;99.90;;;;;;5065385;28;20266;-36
2022/10/04 14:08:53;;;;;;;13.00;4.47;;;19.20;99.90;;;;;;5063720;28;20206;-36
2022/10/04 14:11:55;;;;;;;8.83;4.17;;;19.20;99.90;;;;;;5064600;28;20215;-32
2022/10/04 14:15:12;;;;;;;7.73;3.97;;;19.30;99.90;;;;;;5063083;28;20206;-32
2022/10/04 14:17:45;;;;;;;9.73;3.92;;;19.30;99.90;;;;;;5026010;28;20846;-32
2022/10/04 14:20:40;;;;;;;28.55;6.50;;;19.30;99.90;;;;;;5034724;28;20204;-32